CDT,Max TemperatureF,Mean TemperatureF,Min TemperatureF,Max Dew PointF,MeanDew PointF,Min DewpointF,Max Humidity, Mean Humidity, Min Humidity, Max Sea Level PressureIn, Mean Sea Level PressureIn, Min Sea Level PressureIn, Max VisibilityMiles, Mean VisibilityMiles, Min VisibilityMiles, Max Wind SpeedMPH, Mean Wind SpeedMPH, Max Gust SpeedMPH,PrecipitationIn, CloudCover, Events, WindDirDegrees
2012-10-1,70,57,44,48,42,39,83,59,35,29.94,29.88,29.83,10,10,10,9,3,13,0.00,0,,93
2012-10-2,74,58,42,46,41,38,89,58,27,29.92,29.88,29.84,10,10,8,12,5,18,0.00,0,,60
2012-10-3,75,58,41,52,45,39,96,66,35,30.01,29.96,29.91,10,10,4,13,5,16,0.00,0,,124
2012-10-4,66,53,39,53,46,35,92,74,56,30.19,30.08,30.00,10,9,2,22,11,28,0.07,2,Rain-Thunderstorm,247
2012-10-5,49,39,28,34,29,23,82,61,39,30.25,30.20,30.16,10,10,8,21,10,26,0.00,1,,288
2012-10-6,49,37,25,28,25,21,88,69,49,30.25,30.23,30.18,10,10,10,18,9,24,0.00,4,,305
2012-10-7,52,42,31,27,22,17,70,48,26,30.25,30.20,30.14,10,10,10,16,7,26,0.00,4,,275
2012-10-8,62,48,34,33,30,23,70,51,32,30.14,30.04,29.94,10,10,10,25,15,36,0.00,0,,194
2012-10-9,63,51,38,43,38,33,92,66,39,30.00,29.91,29.84,10,10,6,29,14,35,0.08,4,Rain,246
2012-10-10,54,42,30,34,28,25,89,61,32,30.20,30.14,30.01,10,10,10,25,11,32,0.00,1,,264
2012-10-11,71,54,36,37,32,27,76,52,28,30.21,30.11,30.06,10,10,10,24,13,32,T,1,,221
2012-10-12,57,45,33,35,26,18,76,49,22,30.47,30.35,30.22,10,10,10,18,10,28,T,1,,83
2012-10-13,67,58,48,63,56,37,93,82,71,30.18,29.89,29.75,10,5,2,21,13,25,0.51,7,Rain-Thunderstorm,185
2012-10-14,64,52,40,61,56,39,100,90,80,29.88,29.61,29.44,10,6,1,33,12,46,0.62,7,Rain-Thunderstorm,209
2012-10-15,63,50,36,47,40,36,100,73,46,30.01,29.95,29.89,10,8,2,13,6,20,0.00,0,,272
2012-10-16,76,59,42,53,47,40,89,66,43,29.92,29.64,29.47,10,10,10,29,14,35,0.00,0,,172
2012-10-17,64,56,47,56,50,42,93,73,52,29.49,29.41,29.35,10,8,1,24,13,30,0.36,5,Rain,224
2012-10-18,48,46,43,43,40,35,92,77,61,29.43,29.40,29.37,10,9,4,28,15,36,0.23,8,Rain,228
2012-10-19,53,47,41,45,43,41,100,84,68,29.73,29.54,29.39,10,6,0,18,8,22,0.24,7,Fog-Rain,300
2012-10-20,55,47,39,45,41,37,100,80,59,29.95,29.82,29.72,10,3,0,12,6,14,0.00,4,Fog,268
2012-10-21,71,56,40,53,48,38,96,75,53,29.96,29.92,29.88,10,9,6,17,10,21,0.00,0,,138
2012-10-22,66,61,56,64,61,53,100,90,80,29.93,29.88,29.82,10,3,1,17,7,21,0.18,6,Rain-Thunderstorm,100
2012-10-23,73,67,61,64,62,60,100,87,73,29.89,29.85,29.79,10,6,1,16,9,21,0.15,6,Rain,161
2012-10-24,80,71,62,66,63,59,93,78,62,29.88,29.83,29.74,10,8,1,25,13,31,0.23,3,Rain-Thunderstorm,179
2012-10-25,72,55,38,62,48,31,93,81,68,30.17,29.81,29.63,10,8,1,29,22,37,0.29,7,Rain-Thunderstorm,269
2012-10-26,48,39,30,29,28,27,85,65,45,30.39,30.35,30.24,10,10,10,25,11,35,0.00,0,,321
2012-10-27,46,36,26,28,25,23,92,69,45,30.40,30.35,30.31,10,10,10,15,6,21,0.00,0,,357
2012-10-28,51,37,23,29,25,21,81,60,39,30.36,30.33,30.30,10,10,10,14,7,21,0.00,0,,32
2012-10-29,52,38,24,31,25,21,88,59,30,30.38,30.31,30.18,10,10,9,13,7,16,0.00,0,,17
2012-10-30,54,42,29,28,23,19,78,52,26,30.17,30.03,29.92,10,10,10,25,13,31,0.00,0,,334
2012-10-31,52,39,25,25,21,16,81,53,24,29.98,29.95,29.91,10,10,10,22,11,26,0.00,0,,312